Time;durP1;ratioP1;P1;durP2;ratioP2;P2;SDS_P1;SDS_P2;PMS_P1;PMS_P2;Temp;Humidity;BMP_temperature;BMP_pressure;BME280_temperature;BME280_humidity;BME280_pressure;Samples;Min_cycle;Max_cycle;Signal;HPM_P1;HPM_P2
2023/07/13 00:01:51;;;;;;;7.95;2.10;;;17.50;99.90;;;;;;4976812;28;20045;-60
2023/07/13 00:04:21;;;;;;;7.03;1.70;;;;;;;;;;4973710;28;20500;-60
2023/07/13 00:06:47;;;;;;;7.18;1.80;;;17.70;99.90;;;;;;4983639;28;20039;-60
2023/07/13 00:09:14;;;;;;;10.65;1.98;;;17.70;99.90;;;;;;4978221;28;20501;-60
2023/07/13 00:11:40;;;;;;;8.13;2.17;;;17.60;99.90;;;;;;4982187;28;20117;-60
2023/07/13 00:14:07;;;;;;;10.18;2.15;;;17.40;99.90;;;;;;4978795;28;20207;-60
2023/07/13 00:16:35;;;;;;;6.15;1.83;;;17.60;99.90;;;;;;4974477;28;20043;-60
2023/07/13 00:19:00;;;;;;;11.65;2.20;;;17.00;99.90;;;;;;4980206;28;20038;-60
2023/07/13 00:21:27;;;;;;;11.00;2.20;;;;;;;;;;4982564;28;20544;-60
2023/07/13 00:23:53;;;;;;;5.95;1.67;;;17.30;99.90;;;;;;4988293;28;20683;-60
2023/07/13 00:26:18;;;;;;;8.32;1.60;;;17.40;99.90;;;;;;4978720;28;20225;-60
2023/07/13 00:28:44;;;;;;;9.40;2.28;;;17.40;99.90;;;;;;4986086;28;20035;-60
2023/07/13 00:31:12;;;;;;;8.57;1.63;;;;;;;;;;4990009;28;20391;-60
2023/07/13 00:33:37;;;;;;;8.90;2.05;;;17.50;99.90;;;;;;4981920;28;20049;-60
2023/07/13 00:36:04;;;;;;;5.13;1.55;;;;;;;;;;4986787;28;20118;-60
2023/07/13 00:38:30;;;;;;;5.13;1.30;;;17.40;99.90;;;;;;4987608;28;20420;-60
2023/07/13 00:40:56;;;;;;;7.78;1.63;;;17.40;99.90;;;;;;4975087;28;20122;-60
2023/07/13 00:43:23;;;;;;;6.90;1.35;;;17.30;99.90;;;;;;4975888;28;20042;-60
2023/07/13 00:45:49;;;;;;;4.57;1.40;;;17.30;99.90;;;;;;4987366;28;20504;-60
2023/07/13 00:48:20;;;;;;;5.15;1.20;;;17.60;99.90;;;;;;4986353;28;20085;-60
2023/07/13 00:50:51;;;;;;;5.63;1.25;;;17.20;99.90;;;;;;4988616;28;20500;-60
2023/07/13 00:53:19;;;;;;;5.30;1.52;;;17.10;99.90;;;;;;5000023;28;20065;-60
2023/07/13 00:55:45;;;;;;;4.55;1.77;;;;;;;;;;4984169;28;20053;-60
2023/07/13 00:58:11;;;;;;;4.68;1.30;;;17.20;99.90;;;;;;4988998;28;20132;-60
2023/07/13 01:00:38;;;;;;;5.78;1.38;;;;;;;;;;4981265;28;20123;-60
2023/07/13 01:03:05;;;;;;;5.25;1.23;;;;;;;;;;4972593;28;20479;-60
2023/07/13 01:05:32;;;;;;;5.65;1.30;;;;;;;;;;4974833;28;20137;-61
2023/07/13 01:07:59;;;;;;;5.03;1.30;;;17.00;99.90;;;;;;4988742;28;20042;-60
2023/07/13 01:10:25;;;;;;;4.65;1.48;;;16.30;99.90;;;;;;4976410;28;20051;-60
2023/07/13 01:12:51;;;;;;;5.78;1.40;;;17.10;99.90;;;;;;4982106;28;20038;-60
2023/07/13 01:15:39;;;;;;;4.03;1.15;;;16.90;99.90;;;;;;4985146;28;20065;-60
2023/07/13 01:18:11;;;;;;;4.82;1.30;;;17.00;99.90;;;;;;4983637;28;20077;-61
2023/07/13 01:20:37;;;;;;;5.65;1.10;;;;;;;;;;4987957;28;20049;-61
2023/07/13 01:23:06;;;;;;;5.50;1.30;;;17.20;99.90;;;;;;4981204;28;20370;-61
2023/07/13 01:25:32;;;;;;;4.88;1.35;;;;;;;;;;4999449;28;20038;-61
2023/07/13 01:27:58;;;;;;;6.93;1.48;;;16.90;99.90;;;;;;4980553;28;20046;-61
2023/07/13 01:30:23;;;;;;;7.80;1.85;;;16.50;99.90;;;;;;4989756;28;20039;-61
2023/07/13 01:32:49;;;;;;;4.80;1.58;;;16.70;99.90;;;;;;4975847;28;20038;-61
2023/07/13 01:35:16;;;;;;;4.10;1.20;;;16.60;99.90;;;;;;4985192;28;20030;-61
2023/07/13 01:37:44;;;;;;;6.05;2.20;;;17.20;99.90;;;;;;4976518;28;20053;-61
2023/07/13 01:40:11;;;;;;;7.82;1.30;;;17.30;99.90;;;;;;4982894;28;20027;-61
2023/07/13 01:42:37;;;;;;;7.35;1.60;;;16.70;99.90;;;;;;4977486;28;20506;-61
2023/07/13 01:45:04;;;;;;;5.97;1.40;;;;;;;;;;4977924;28;20206;-61
2023/07/13 01:47:30;;;;;;;5.38;1.52;;;16.70;99.90;;;;;;4989070;28;20049;-61
2023/07/13 01:49:57;;;;;;;5.63;1.45;;;16.90;99.90;;;;;;4983902;28;20046;-61
2023/07/13 01:52:22;;;;;;;4.28;1.23;;;16.80;99.90;;;;;;4987480;28;20045;-62
2023/07/13 01:54:48;;;;;;;6.03;1.40;;;17.10;99.90;;;;;;4984972;28;20034;-61
2023/07/13 01:57:14;;;;;;;6.57;1.58;;;16.30;99.90;;;;;;4979295;28;20046;-61
2023/07/13 01:59:40;;;;;;;6.57;1.50;;;;;;;;;;4987120;28;20045;-61
2023/07/13 02:02:06;;;;;;;6.05;1.80;;;16.80;99.90;;;;;;4977451;28;20400;-61
2023/07/13 02:04:32;;;;;;;6.50;1.63;;;16.70;99.90;;;;;;4976276;28;20043;-61
2023/07/13 02:06:58;;;;;;;5.45;1.50;;;16.80;99.90;;;;;;4979201;28;20121;-61
2023/07/13 02:09:23;;;;;;;7.10;1.80;;;16.20;99.90;;;;;;4986757;28;20042;-61
2023/07/13 02:11:49;;;;;;;5.97;1.40;;;17.00;99.90;;;;;;4975405;28;20037;-61
2023/07/13 02:14:15;;;;;;;6.45;1.65;;;;;;;;;;4977432;28;20106;-61
2023/07/13 02:16:41;;;;;;;7.88;1.85;;;;;;;;;;4975425;28;20270;-61
2023/07/13 02:19:08;;;;;;;8.10;2.25;;;;;;;;;;4974962;28;20389;-61
2023/07/13 02:21:34;;;;;;;11.15;2.33;;;17.00;99.90;;;;;;4981655;28;20038;-61
2023/07/13 02:23:59;;;;;;;8.85;2.00;;;16.60;99.90;;;;;;4979415;28;20034;-61
2023/07/13 02:26:26;;;;;;;8.68;1.90;;;;;;;;;;4989097;28;20403;-61
2023/07/13 02:28:52;;;;;;;8.23;2.22;;;;;;;;;;4972884;28;20058;-61
2023/07/13 02:31:18;;;;;;;9.25;2.78;;;;;;;;;;4976934;28;20496;-62
2023/07/13 02:33:44;;;;;;;9.30;1.80;;;16.60;99.90;;;;;;4972178;28;20067;-61
2023/07/13 02:36:10;;;;;;;8.10;2.35;;;;;;;;;;4977764;28;20258;-61
2023/07/13 02:38:36;;;;;;;9.52;2.55;;;16.60;1.00;;;;;;4980720;28;20452;-60
2023/07/13 02:41:07;;;;;;;6.35;2.20;;;;;;;;;;4976913;28;20114;-60
2023/07/13 02:43:33;;;;;;;7.35;2.25;;;;;;;;;;4979773;28;20082;-60
2023/07/13 02:46:04;;;;;;;9.05;2.60;;;;;;;;;;4989970;28;20499;-60
2023/07/13 02:48:30;;;;;;;7.85;2.67;;;16.70;12.30;;;;;;4992197;28;20050;-60
2023/07/13 02:50:55;;;;;;;10.55;2.65;;;16.10;36.30;;;;;;4979936;28;20042;-60
2023/07/13 02:53:21;;;;;;;13.80;4.20;;;16.10;65.00;;;;;;4982771;28;20046;-59
2023/07/13 02:55:47;;;;;;;11.98;3.40;;;16.00;81.20;;;;;;4984832;28;20042;-59
2023/07/13 02:58:16;;;;;;;9.85;3.33;;;;;;;;;;4982199;28;20451;-59
2023/07/13 03:00:45;;;;;;;11.73;3.20;;;16.10;96.40;;;;;;4990615;28;20038;-58
2023/07/13 03:03:12;;;;;;;10.35;3.03;;;16.20;99.50;;;;;;4980185;28;20034;-58
2023/07/13 03:05:40;;;;;;;10.60;3.35;;;15.70;95.80;;;;;;4980585;28;20039;-59
2023/07/13 03:08:06;;;;;;;12.98;3.88;;;16.20;99.90;;;;;;4974077;28;20061;-60
2023/07/13 03:10:32;;;;;;;9.15;3.22;;;16.10;99.90;;;;;;4980658;28;20074;-61
2023/07/13 03:12:58;;;;;;;13.00;3.33;;;16.10;99.90;;;;;;4978270;28;20531;-61
2023/07/13 03:15:24;;;;;;;12.10;3.20;;;;;;;;;;4984228;28;20043;-62
2023/07/13 03:17:50;;;;;;;10.13;3.40;;;;;;;;;;4982688;28;20043;-63
2023/07/13 03:20:16;;;;;;;10.55;3.88;;;16.20;99.90;;;;;;4979769;28;20098;-63
2023/07/13 03:22:42;;;;;;;17.60;4.32;;;;;;;;;;4970482;28;20041;-63
2023/07/13 03:25:08;;;;;;;12.20;3.40;;;16.90;99.90;;;;;;4984921;28;20443;-63
2023/07/13 03:27:34;;;;;;;15.20;3.75;;;15.90;99.90;;;;;;4978580;28;20047;-63
2023/07/13 03:29:59;;;;;;;12.25;3.58;;;16.50;99.90;;;;;;4976495;28;20043;-63
2023/07/13 03:32:26;;;;;;;14.52;4.07;;;16.60;99.90;;;;;;4978374;28;20461;-63
2023/07/13 03:34:51;;;;;;;10.88;3.97;;;16.00;99.90;;;;;;4978992;28;20058;-63
2023/07/13 03:37:17;;;;;;;15.00;5.13;;;16.20;99.90;;;;;;4990227;28;20034;-64
2023/07/13 03:39:43;;;;;;;9.52;3.58;;;16.20;99.90;;;;;;4987989;28;20042;-64
2023/07/13 03:42:09;;;;;;;12.10;4.47;;;16.00;99.90;;;;;;4989137;28;20125;-64
2023/07/13 03:44:35;;;;;;;10.13;3.72;;;16.00;99.90;;;;;;4983441;28;20067;-64
2023/07/13 03:47:01;;;;;;;11.27;3.63;;;16.00;99.90;;;;;;4988313;28;20058;-64
2023/07/13 03:49:27;;;;;;;10.27;3.25;;;;;;;;;;4988774;28;20043;-64
2023/07/13 03:51:53;;;;;;;13.65;4.43;;;;;;;;;;4978408;28;20046;-64
2023/07/13 03:54:19;;;;;;;14.35;4.82;;;16.10;99.90;;;;;;4976325;28;20046;-64
2023/07/13 03:56:44;;;;;;;11.02;3.72;;;16.00;99.90;;;;;;4985092;28;20042;-64
2023/07/13 03:59:10;;;;;;;9.40;3.42;;;16.10;99.90;;;;;;4983287;28;20517;-64
2023/07/13 04:01:36;;;;;;;9.93;4.13;;;15.80;99.90;;;;;;4983726;28;20045;-64
2023/07/13 04:04:01;;;;;;;11.30;4.40;;;16.60;99.90;;;;;;4984229;28;20093;-64
2023/07/13 04:06:29;;;;;;;12.15;3.88;;;;;;;;;;4985223;28;20046;-64
2023/07/13 04:08:57;;;;;;;14.35;4.30;;;15.60;99.90;;;;;;4974073;28;20039;-64
2023/07/13 04:11:25;;;;;;;12.63;3.90;;;;;;;;;;4977722;28;20041;-64
2023/07/13 04:13:51;;;;;;;13.32;3.83;;;16.20;99.90;;;;;;4980674;28;20479;-64
2023/07/13 04:16:18;;;;;;;10.38;3.92;;;16.60;99.90;;;;;;4988826;28;20030;-64
2023/07/13 04:18:45;;;;;;;15.63;4.70;;;16.10;99.90;;;;;;4983730;28;20501;-64
2023/07/13 04:21:11;;;;;;;15.60;4.43;;;16.20;99.90;;;;;;4982362;28;20046;-64
2023/07/13 04:23:38;;;;;;;11.13;4.05;;;;;;;;;;4981359;28;20038;-64
2023/07/13 04:26:04;;;;;;;13.82;4.95;;;;;;;;;;4976999;28;20038;-64
2023/07/13 04:28:30;;;;;;;11.55;3.67;;;;;;;;;;4978980;28;20042;-64
2023/07/13 04:30:57;;;;;;;12.63;5.10;;;;;;;;;;4983514;28;20038;-64
2023/07/13 04:33:23;;;;;;;14.75;4.28;;;16.10;99.90;;;;;;4980921;28;20199;-64
2023/07/13 04:35:54;;;;;;;9.73;3.88;;;16.20;99.90;;;;;;4989997;28;20528;-64
2023/07/13 04:38:20;;;;;;;13.90;4.53;;;15.60;99.90;;;;;;4978436;28;20057;-64
2023/07/13 04:40:47;;;;;;;10.43;3.50;;;16.60;99.90;;;;;;5004202;28;20117;-64
2023/07/13 04:43:13;;;;;;;11.02;4.13;;;16.20;99.90;;;;;;4981796;28;20327;-64
2023/07/13 04:45:39;;;;;;;10.13;3.45;;;;;;;;;;4984040;28;20072;-64
2023/07/13 04:48:05;;;;;;;10.65;3.95;;;15.60;99.90;;;;;;4988827;28;20439;-64
2023/07/13 04:50:30;;;;;;;12.77;4.13;;;15.60;99.90;;;;;;4983744;28;20045;-63
2023/07/13 04:52:56;;;;;;;13.93;3.90;;;16.10;99.90;;;;;;4981224;28;20038;-64
2023/07/13 04:55:22;;;;;;;12.13;3.55;;;16.90;99.90;;;;;;4977197;28;20536;-63
2023/07/13 04:57:47;;;;;;;12.23;4.13;;;16.40;99.90;;;;;;4979410;28;20039;-64
2023/07/13 05:00:15;;;;;;;12.43;4.07;;;16.70;98.90;;;;;;4982261;28;20034;-64
2023/07/13 05:02:45;;;;;;;11.45;5.15;;;15.80;96.50;;;;;;4982388;28;20074;-63
2023/07/13 05:05:11;;;;;;;10.98;4.15;;;16.60;92.30;;;;;;4975112;28;20046;-63
2023/07/13 05:07:36;;;;;;;13.38;4.40;;;16.30;92.70;;;;;;4975185;28;20042;-64
2023/07/13 05:10:03;;;;;;;12.55;4.40;;;16.40;91.20;;;;;;4970880;28;20081;-63
2023/07/13 05:12:30;;;;;;;11.73;4.00;;;16.80;68.10;;;;;;4978863;28;20049;-63
2023/07/13 05:14:56;;;;;;;15.00;3.85;;;16.90;65.40;;;;;;4975593;28;20042;-63
2023/07/13 05:17:21;;;;;;;9.93;4.18;;;16.90;68.60;;;;;;4975463;28;20089;-63
2023/07/13 05:19:47;;;;;;;10.77;3.28;;;16.70;26.90;;;;;;4976282;28;20066;-63
2023/07/13 05:22:13;;;;;;;10.13;3.30;;;16.70;1.00;;;;;;4980740;28;20030;-63
2023/07/13 05:24:39;;;;;;;9.70;3.25;;;17.20;1.00;;;;;;4979713;28;20035;-63
2023/07/13 05:27:05;;;;;;;9.80;3.38;;;16.80;1.00;;;;;;4978428;28;20496;-63
2023/07/13 05:29:31;;;;;;;8.68;3.28;;;16.80;1.00;;;;;;4983745;28;20042;-63
2023/07/13 05:31:56;;;;;;;6.63;2.80;;;17.00;1.00;;;;;;4979543;28;20093;-63
2023/07/13 05:34:23;;;;;;;10.80;3.10;;;16.10;1.00;;;;;;4975442;28;20039;-63
2023/07/13 05:36:49;;;;;;;7.35;3.28;;;17.20;1.00;;;;;;4981108;28;20101;-63
2023/07/13 05:39:15;;;;;;;8.63;2.63;;;17.10;1.00;;;;;;4989157;28;20038;-63
2023/07/13 05:41:41;;;;;;;9.45;2.47;;;;;;;;;;4985218;28;20349;-63
2023/07/13 05:44:07;;;;;;;8.45;2.78;;;16.50;99.90;;;;;;4985873;28;20038;-63
2023/07/13 05:46:33;;;;;;;9.80;2.70;;;17.20;99.90;;;;;;4987314;28;20403;-63
2023/07/13 05:48:59;;;;;;;10.27;3.47;;;17.20;99.90;;;;;;4989808;28;20084;-63
2023/07/13 05:51:25;;;;;;;11.95;2.50;;;17.20;99.90;;;;;;4984016;28;20087;-63
2023/07/13 05:53:51;;;;;;;8.60;2.70;;;17.10;99.90;;;;;;4970562;28;20041;-62
2023/07/13 05:56:16;;;;;;;7.78;2.80;;;17.10;99.90;;;;;;4954894;28;20041;-62
2023/07/13 05:58:42;;;;;;;6.68;2.33;;;17.20;99.90;;;;;;4957680;28;20038;-61
2023/07/13 06:01:12;;;;;;;6.93;2.25;;;;;;;;;;4951341;28;20050;-60
2023/07/13 06:03:38;;;;;;;7.38;2.58;;;17.40;99.90;;;;;;4953127;28;20509;-58
2023/07/13 06:06:08;;;;;;;5.68;2.42;;;;;;;;;;4958099;28;20039;-58
2023/07/13 06:08:33;;;;;;;7.18;2.00;;;17.50;99.90;;;;;;4956144;28;20043;-58
2023/07/13 06:11:12;;;;;;;5.47;2.03;;;;;;;;;;4957636;28;20225;-59
2023/07/13 06:13:38;;;;;;;8.93;2.58;;;;;;;;;;4959519;28;20055;-61
2023/07/13 06:16:04;;;;;;;7.20;1.90;;;;;;;;;;4960860;28;20046;-60
2023/07/13 06:18:32;;;;;;;6.88;2.10;;;17.80;99.90;;;;;;4958397;28;20042;-60
2023/07/13 06:20:58;;;;;;;6.00;1.65;;;17.70;99.90;;;;;;4959524;28;20181;-60
2023/07/13 06:23:24;;;;;;;6.45;1.38;;;;;;;;;;4959011;28;20485;-59
2023/07/13 06:25:50;;;;;;;6.63;1.95;;;;;;;;;;4962472;28;20282;-59
2023/07/13 06:28:16;;;;;;;8.77;1.77;;;18.00;91.30;;;;;;4955930;28;20493;-58
2023/07/13 06:30:41;;;;;;;7.03;1.90;;;18.00;79.50;;;;;;4958223;28;20038;-60
2023/07/13 06:33:08;;;;;;;5.82;1.70;;;;;;;;;;4956722;28;20108;-60
2023/07/13 06:35:34;;;;;;;8.00;2.20;;;17.60;83.60;;;;;;4961029;28;20045;-60
2023/07/13 06:38:00;;;;;;;6.90;2.08;;;18.00;54.50;;;;;;4974997;28;20042;-59
2023/07/13 06:40:28;;;;;;;3.95;1.50;;;18.30;1.00;;;;;;4985569;28;20038;-59
2023/07/13 06:42:54;;;;;;;5.40;1.58;;;18.20;1.00;;;;;;4981858;28;20400;-59
2023/07/13 06:45:20;;;;;;;5.78;1.58;;;;;;;;;;4984069;28;20156;-59
2023/07/13 06:47:45;;;;;;;5.18;1.50;;;18.30;1.00;;;;;;4974699;28;20535;-58
2023/07/13 06:50:11;;;;;;;6.85;1.73;;;18.30;1.00;;;;;;4975854;28;20034;-59
2023/07/13 06:52:37;;;;;;;4.47;1.45;;;18.40;1.00;;;;;;4976977;28;20061;-61
2023/07/13 06:55:03;;;;;;;8.50;1.73;;;;;;;;;;4978263;28;20096;-58
2023/07/13 06:57:29;;;;;;;5.30;1.70;;;17.80;1.00;;;;;;4982748;28;20081;-59
2023/07/13 06:59:55;;;;;;;15.07;2.10;;;18.20;1.00;;;;;;4983186;28;20062;-58
2023/07/13 07:02:20;;;;;;;6.70;1.77;;;18.20;99.90;;;;;;4976040;28;20555;-58
2023/07/13 07:04:46;;;;;;;5.80;1.52;;;19.30;99.90;;;;;;4982037;28;20035;-59
2023/07/13 07:07:12;;;;;;;4.78;1.40;;;18.60;99.90;;;;;;4985511;28;20337;-59
2023/07/13 07:09:37;;;;;;;7.32;1.88;;;18.70;99.90;;;;;;4977307;28;20046;-59
2023/07/13 07:12:03;;;;;;;5.00;1.60;;;18.70;99.90;;;;;;4984497;28;20077;-60
2023/07/13 07:14:29;;;;;;;6.50;1.83;;;18.40;99.90;;;;;;4985698;28;20446;-59
2023/07/13 07:16:55;;;;;;;4.82;1.63;;;19.30;99.90;;;;;;4981078;28;20030;-59
2023/07/13 07:19:21;;;;;;;5.65;1.88;;;18.80;99.90;;;;;;4985267;28;20519;-58
2023/07/13 07:21:46;;;;;;;7.85;1.83;;;18.50;99.90;;;;;;4983912;28;20026;-58
2023/07/13 07:24:12;;;;;;;5.50;1.50;;;18.80;99.90;;;;;;4992346;28;20041;-59
2023/07/13 07:26:38;;;;;;;6.82;1.85;;;19.50;99.90;;;;;;4980046;28;20039;-59
2023/07/13 07:29:03;;;;;;;8.38;2.20;;;18.50;99.90;;;;;;4979202;28;20046;-59
2023/07/13 07:31:29;;;;;;;6.55;1.80;;;18.90;99.90;;;;;;4989552;28;20034;-58
2023/07/13 07:33:55;;;;;;;6.13;1.65;;;18.80;99.90;;;;;;4981068;28;20039;-58
2023/07/13 07:36:20;;;;;;;5.45;1.50;;;18.80;99.90;;;;;;4989622;28;20050;-59
2023/07/13 07:38:46;;;;;;;4.68;1.45;;;19.50;99.90;;;;;;4981010;28;20042;-60
2023/07/13 07:41:12;;;;;;;6.53;1.88;;;19.10;99.90;;;;;;4974927;28;20441;-57
2023/07/13 07:43:38;;;;;;;5.00;1.55;;;19.00;99.90;;;;;;4980547;28;20041;-60
2023/07/13 07:46:04;;;;;;;7.07;2.40;;;18.30;99.90;;;;;;4985530;28;20396;-59
2023/07/13 07:48:30;;;;;;;6.30;1.70;;;19.10;99.90;;;;;;4989422;28;20982;-57
2023/07/13 07:50:56;;;;;;;5.53;1.80;;;;;;;;;;4980489;28;20053;-58
2023/07/13 07:53:22;;;;;;;8.35;2.28;;;;;;;;;;4990813;28;20051;-59
2023/07/13 07:55:48;;;;;;;6.85;1.80;;;19.00;99.90;;;;;;4987169;28;20066;-57
2023/07/13 07:58:16;;;;;;;9.23;2.05;;;19.10;99.90;;;;;;4991587;28;20070;-58
2023/07/13 08:00:41;;;;;;;7.10;2.05;;;19.20;99.90;;;;;;4987367;28;20039;-59
2023/07/13 08:03:07;;;;;;;7.60;2.08;;;19.10;99.90;;;;;;4986083;28;20146;-58
2023/07/13 08:05:35;;;;;;;7.45;2.10;;;18.90;99.90;;;;;;4979688;28;20077;-58
2023/07/13 08:08:01;;;;;;;7.15;2.00;;;19.60;99.90;;;;;;4983869;28;20043;-58
2023/07/13 08:10:27;;;;;;;6.25;2.17;;;19.00;99.90;;;;;;4987827;28;20100;-59
2023/07/13 08:12:53;;;;;;;7.38;2.22;;;19.60;99.90;;;;;;4989252;28;20041;-59
2023/07/13 08:15:20;;;;;;;6.03;2.17;;;;;;;;;;4986975;28;20045;-59
2023/07/13 08:17:47;;;;;;;7.47;2.00;;;19.30;99.90;;;;;;4989476;28;20122;-59
2023/07/13 08:20:13;;;;;;;8.55;2.83;;;19.50;99.90;;;;;;4990628;28;20038;-59
2023/07/13 08:22:39;;;;;;;7.53;2.63;;;;;;;;;;4988215;28;20460;-59
2023/07/13 08:25:06;;;;;;;6.43;2.13;;;19.60;99.90;;;;;;4984215;28;20038;-59
2023/07/13 08:27:32;;;;;;;6.65;2.10;;;20.00;99.90;;;;;;4989902;28;20048;-59
2023/07/13 08:29:58;;;;;;;7.38;2.60;;;19.50;99.90;;;;;;4980180;28;20367;-59
2023/07/13 08:32:24;;;;;;;6.65;1.90;;;19.50;57.50;;;;;;4986489;28;20117;-58
2023/07/13 08:34:50;;;;;;;6.90;2.10;;;;;;;;;;4986978;28;20038;-59
2023/07/13 08:37:16;;;;;;;6.75;1.75;;;18.70;99.90;;;;;;4985618;28;20111;-59
2023/07/13 08:39:43;;;;;;;8.40;1.98;;;19.70;99.90;;;;;;4990674;28;20041;-59
2023/07/13 08:42:35;;;;;;;4.50;1.42;;;19.20;77.30;;;;;;4990771;28;20058;-59
2023/07/13 08:45:13;;;;;;;4.53;1.50;;;;;;;;;;4979947;28;20217;-59
2023/07/13 08:47:45;;;;;;;5.22;1.60;;;19.40;99.90;;;;;;4989103;28;20458;-58
2023/07/13 08:50:18;;;;;;;5.45;1.52;;;19.40;99.90;;;;;;4984450;28;20505;-59
2023/07/13 08:52:44;;;;;;;4.45;1.50;;;19.60;99.90;;;;;;4989675;28;20369;-58
2023/07/13 08:55:22;;;;;;;4.85;1.40;;;;;;;;;;4977248;28;20405;-59
2023/07/13 08:57:59;;;;;;;8.38;2.55;;;19.90;99.90;;;;;;4981622;28;20287;-58
2023/07/13 09:00:34;;;;;;;5.93;1.40;;;19.60;1.00;;;;;;4982701;28;20054;-58
2023/07/13 09:03:02;;;;;;;7.07;1.80;;;19.90;99.90;;;;;;4984048;28;20515;-60
2023/07/13 09:05:39;;;;;;;6.05;1.75;;;;;;;;;;4982978;28;20031;-60
2023/07/13 09:08:47;;;;;;;5.95;1.58;;;20.10;99.90;;;;;;4989195;28;20128;-59
2023/07/13 09:11:37;;;;;;;6.82;1.63;;;20.20;99.90;;;;;;4973688;28;20050;-59
2023/07/13 09:14:14;;;;;;;4.85;1.48;;;19.70;99.90;;;;;;4979264;28;20038;-59
2023/07/13 09:16:41;;;;;;;5.32;1.75;;;19.80;99.90;;;;;;4988220;28;20088;-59
2023/07/13 09:19:14;;;;;;;4.20;1.45;;;19.50;99.90;;;;;;4982717;28;20034;-59
2023/07/13 09:21:42;;;;;;;6.13;1.63;;;20.00;99.90;;;;;;4978372;28;20385;-59
2023/07/13 09:24:23;;;;;;;5.13;1.40;;;20.00;99.90;;;;;;4978675;28;20038;-59
2023/07/13 09:26:49;;;;;;;5.57;1.95;;;19.60;99.90;;;;;;4975355;28;20452;-60
2023/07/13 09:29:26;;;;;;;4.45;1.70;;;19.70;99.90;;;;;;4987537;28;20035;-59
2023/07/13 09:31:55;;;;;;;5.20;1.73;;;19.70;99.90;;;;;;4979637;28;20484;-59
2023/07/13 09:34:21;;;;;;;5.00;1.30;;;19.50;99.90;;;;;;4989806;28;20038;-59
2023/07/13 09:36:46;;;;;;;6.53;1.50;;;19.60;88.50;;;;;;4984023;28;20042;-59
2023/07/13 09:39:27;;;;;;;5.65;1.45;;;19.80;55.70;;;;;;4981209;28;20030;-60
2023/07/13 09:42:07;;;;;;;4.93;1.10;;;20.00;40.60;;;;;;4982264;28;20069;-59
2023/07/13 09:44:50;;;;;;;4.25;1.00;;;;;;;;;;4982819;28;20045;-59
2023/07/13 09:47:18;;;;;;;6.25;1.65;;;19.90;1.00;;;;;;4983692;28;20109;-59
2023/07/13 09:49:45;;;;;;;3.60;1.20;;;;;;;;;;4989548;28;20121;-58
2023/07/13 09:52:14;;;;;;;5.47;1.40;;;19.90;1.00;;;;;;4986251;28;20046;-59
2023/07/13 09:54:39;;;;;;;5.90;1.45;;;20.00;1.00;;;;;;4987441;28;20052;-59
2023/07/13 09:57:14;;;;;;;3.95;1.30;;;20.00;1.00;;;;;;4976939;28;20039;-59
2023/07/13 09:59:46;;;;;;;4.35;1.23;;;20.20;1.00;;;;;;4985628;28;20084;-58
2023/07/13 10:02:33;;;;;;;5.00;1.50;;;20.10;1.00;;;;;;4984151;28;20049;-60
2023/07/13 10:05:04;;;;;;;6.53;1.80;;;20.00;1.00;;;;;;4981790;28;20046;-59
2023/07/13 10:07:31;;;;;;;5.05;1.40;;;20.20;1.00;;;;;;4983988;28;20053;-59
2023/07/13 10:10:00;;;;;;;5.88;1.52;;;20.60;1.00;;;;;;4983052;28;20078;-59
2023/07/13 10:12:27;;;;;;;5.43;1.75;;;20.40;1.00;;;;;;4989404;28;20046;-59
2023/07/13 10:14:58;;;;;;;6.22;1.85;;;;;;;;;;4986222;28;20042;-59
2023/07/13 10:17:30;;;;;;;6.15;1.90;;;20.50;1.00;;;;;;4982572;28;20049;-59
2023/07/13 10:19:59;;;;;;;6.22;2.00;;;20.40;1.00;;;;;;4985799;28;20046;-59
2023/07/13 10:22:55;;;;;;;4.18;1.40;;;20.30;1.00;;;;;;4986405;28;20038;-59
2023/07/13 10:25:25;;;;;;;5.25;1.55;;;20.30;1.00;;;;;;4979223;28;20046;-59
2023/07/13 10:27:56;;;;;;;5.53;1.67;;;20.50;1.00;;;;;;4985294;28;20057;-59
2023/07/13 10:30:29;;;;;;;4.45;1.58;;;20.20;1.00;;;;;;4986180;28;20077;-59
2023/07/13 10:32:59;;;;;;;6.35;1.60;;;20.50;99.90;;;;;;4977780;28;20201;-59
2023/07/13 10:35:28;;;;;;;5.13;1.50;;;20.30;1.00;;;;;;4980349;28;20157;-59
2023/07/13 10:38:09;;;;;;;5.00;1.63;;;;;;;;;;4984452;28;20515;-59
2023/07/13 10:40:42;;;;;;;4.45;1.40;;;20.50;99.90;;;;;;4976916;28;20053;-59
2023/07/13 10:43:18;;;;;;;6.18;1.55;;;20.30;99.90;;;;;;4975310;28;20544;-59
2023/07/13 10:45:48;;;;;;;7.00;1.52;;;20.30;1.00;;;;;;4984895;28;20066;-59
2023/07/13 10:48:15;;;;;;;9.40;2.67;;;20.50;1.00;;;;;;4977210;28;20062;-59
2023/07/13 10:50:44;;;;;;;9.25;2.08;;;20.50;1.00;;;;;;4978992;28;20381;-59
2023/07/13 10:53:21;;;;;;;6.38;1.67;;;20.20;1.00;;;;;;4971959;28;20034;-59
2023/07/13 10:55:52;;;;;;;5.30;1.42;;;20.20;1.00;;;;;;4974340;28;20043;-59
2023/07/13 10:58:41;;;;;;;5.90;1.50;;;20.60;1.00;;;;;;4982049;28;21703;-59
2023/07/13 11:01:10;;;;;;;5.00;1.67;;;20.60;99.90;;;;;;4976496;28;20027;-59
2023/07/13 11:03:43;;;;;;;7.28;2.28;;;20.70;1.00;;;;;;4980930;28;20141;-59
2023/07/13 11:06:12;;;;;;;5.43;2.40;;;;;;;;;;4987270;28;20105;-60
2023/07/13 11:09:18;;;;;;;7.45;2.03;;;20.50;1.00;;;;;;4990045;28;20395;-59
2023/07/13 11:11:45;;;;;;;5.90;1.67;;;;;;;;;;4976416;28;20053;-59
2023/07/13 11:14:26;;;;;;;7.90;1.70;;;20.40;99.90;;;;;;4973660;28;20078;-59
2023/07/13 11:16:52;;;;;;;5.90;1.83;;;21.00;99.90;;;;;;4982997;28;20034;-58
2023/07/13 11:19:18;;;;;;;6.45;2.00;;;21.00;99.90;;;;;;4986178;28;20528;-59
2023/07/13 11:22:05;;;;;;;6.93;2.17;;;20.10;99.90;;;;;;4979407;28;20039;-60
2023/07/13 11:24:51;;;;;;;5.45;1.73;;;20.50;99.90;;;;;;4984740;28;20049;-59
2023/07/13 11:27:37;;;;;;;7.38;1.63;;;;;;;;;;4974186;28;20057;-59
2023/07/13 11:30:25;;;;;;;6.40;2.05;;;20.40;99.90;;;;;;4988980;28;20042;-60
2023/07/13 11:33:15;;;;;;;6.22;1.55;;;20.70;99.90;;;;;;4980043;28;20039;-59
2023/07/13 11:36:01;;;;;;;4.70;1.55;;;21.40;99.90;;;;;;4988729;28;20049;-59
2023/07/13 11:38:41;;;;;;;7.25;2.00;;;20.60;99.90;;;;;;4966496;28;20157;-59
2023/07/13 11:41:30;;;;;;;7.63;2.00;;;20.70;99.90;;;;;;4989686;28;20038;-59
2023/07/13 11:44:07;;;;;;;5.97;1.65;;;20.80;99.90;;;;;;4983135;28;20057;-60
2023/07/13 11:46:33;;;;;;;5.88;1.58;;;20.80;99.90;;;;;;4987182;28;20526;-59
2023/07/13 11:48:59;;;;;;;5.07;1.60;;;20.60;99.90;;;;;;4980349;28;20043;-59
2023/07/13 11:51:29;;;;;;;6.38;1.70;;;20.80;99.90;;;;;;4986978;28;20120;-60
2023/07/13 11:53:57;;;;;;;8.07;1.60;;;21.00;99.90;;;;;;4981306;28;20038;-59
2023/07/13 11:56:25;;;;;;;5.25;1.50;;;20.80;99.90;;;;;;4989950;28;20038;-59
2023/07/13 11:58:53;;;;;;;7.45;2.10;;;20.40;99.90;;;;;;4979039;28;20039;-60
2023/07/13 12:01:25;;;;;;;7.40;1.73;;;20.80;99.90;;;;;;4982168;28;20056;-59
2023/07/13 12:03:53;;;;;;;4.90;1.65;;;21.20;99.90;;;;;;4979177;28;20034;-60
2023/07/13 12:06:24;;;;;;;6.03;2.35;;;21.80;99.90;;;;;;4985465;28;20069;-60
2023/07/13 12:08:50;;;;;;;5.88;1.60;;;21.00;99.90;;;;;;4985797;28;20050;-60
2023/07/13 12:11:18;;;;;;;4.82;1.60;;;21.00;99.90;;;;;;4989198;28;20093;-60
2023/07/13 12:13:45;;;;;;;7.80;2.00;;;;;;;;;;4983119;28;20034;-59
2023/07/13 12:16:16;;;;;;;8.65;1.88;;;21.00;99.90;;;;;;4988170;28;20069;-60
2023/07/13 12:18:45;;;;;;;7.07;1.80;;;20.70;99.90;;;;;;4983318;28;20192;-59
2023/07/13 12:21:14;;;;;;;6.93;2.15;;;22.20;99.90;;;;;;4986257;28;20047;-59
2023/07/13 12:23:44;;;;;;;9.30;2.22;;;21.20;99.90;;;;;;4985262;28;20362;-60
2023/07/13 12:26:11;;;;;;;5.57;1.98;;;21.60;99.90;;;;;;4985673;28;20370;-60
2023/07/13 12:28:56;;;;;;;6.80;2.20;;;21.30;99.90;;;;;;4981069;28;20469;-59
2023/07/13 12:31:34;;;;;;;6.20;2.28;;;21.10;99.90;;;;;;4965667;28;20042;-60
2023/07/13 12:34:08;;;;;;;8.30;2.50;;;22.10;99.90;;;;;;4987227;28;20048;-60
2023/07/13 12:36:36;;;;;;;7.95;2.13;;;22.00;99.90;;;;;;4987294;28;20141;-60
2023/07/13 12:39:13;;;;;;;9.00;2.20;;;20.90;1.00;;;;;;4987478;28;20461;-61
2023/07/13 12:41:40;;;;;;;7.13;2.60;;;20.80;1.00;;;;;;4989396;28;20038;-61
2023/07/13 12:44:12;;;;;;;7.40;2.80;;;21.20;1.00;;;;;;4983212;28;20043;-61
2023/07/13 12:46:37;;;;;;;6.88;1.95;;;20.60;1.00;;;;;;4982562;28;20404;-60
2023/07/13 12:49:07;;;;;;;9.43;2.40;;;20.80;1.00;;;;;;4986412;28;20125;-59
2023/07/13 12:51:32;;;;;;;10.13;2.72;;;20.50;1.00;;;;;;4981889;28;20373;-62
2023/07/13 12:54:16;;;;;;;10.52;2.70;;;21.50;1.00;;;;;;4981786;28;20113;-62
2023/07/13 12:56:42;;;;;;;7.45;2.33;;;20.80;1.00;;;;;;4981502;28;20065;-61
2023/07/13 12:59:16;;;;;;;11.20;3.20;;;21.40;1.00;;;;;;4978416;28;20038;-63
2023/07/13 13:01:42;;;;;;;8.63;2.33;;;21.40;1.00;;;;;;4983677;28;20038;-62
2023/07/13 13:04:11;;;;;;;8.15;2.47;;;21.60;1.00;;;;;;4979737;28;20041;-66
2023/07/13 13:06:37;;;;;;;5.40;1.90;;;21.20;1.00;;;;;;4981619;28;20516;-64
2023/07/13 13:09:03;;;;;;;10.13;2.88;;;21.60;5.70;;;;;;4978713;28;20046;-64
2023/07/13 13:11:31;;;;;;;10.95;2.58;;;20.20;47.30;;;;;;4988100;28;20042;-64
2023/07/13 13:13:57;;;;;;;8.65;2.67;;;20.40;78.90;;;;;;4979142;28;20443;-63